^^
Station Historical Data
Daily Summary for January 13, 2018 Units:  English    Metric   Both
« Previous Day
Next Day »
Daily Weekly Monthly Yearly Custom
  High: Low: Average:
Temperature: TemperatureF °F 46.9 °F 55.8 °F
Dew Point: DewpointF °F 39.8 °F 49.3 °F
Humidity: Humidity% 64% 79%
Wind Speed: WindSpeedMPHmph 0.0mph 0mph
Wind Gust: WindSpeedGustMPHmph - -
Wind- - North
Pressure: PressureIn in 29.97 in -
Precipitation: 0.00 in    
Historical Graphs
 
 
Tabular Data for January 13, 2018
Time Temperature Dew Point Pressure Wind Wind Speed Wind Gust Humidity Rainfall Rate (Hourly) solar Conditions
TemperatureF °F DewpointF °F PressureIn in Calm     Humidity% HourlyPrecipIn in SolarRadiationWatts/m^2 W/m2 Conditions
00:10 63.0 °F 60.9 °F 29.97 in Calm     93% 0.00 in 0.0 W/m2 OVC
00:15 63.0 °F 60.9 °F 29.97 in Calm     93% 0.00 in 0.0 W/m2 OVC
00:30 63.0 °F 60.9 °F 29.97 in Calm     93% 0.00 in 0.0 W/m2 OVC
00:45 63.0 °F 60.9 °F 29.97 in Calm     93% 0.00 in 0.0 W/m2 OVC
00:55 63.0 °F 60.9 °F 29.97 in Calm     93% 0.00 in 0.0 W/m2 OVC
01:00 63.0 °F 60.9 °F 29.97 in Calm     93% 0.00 in 0.0 W/m2 OVC
01:10 61.0 °F 59.8 °F 29.97 in Calm     96% 0.00 in 0.0 W/m2 OVC
01:15 61.0 °F 59.8 °F 29.97 in Calm     96% 0.00 in 0.0 W/m2 OVC
01:30 61.0 °F 59.8 °F 29.97 in Calm     96% 0.00 in 0.0 W/m2 OVC
01:45 61.0 °F 59.8 °F 29.97 in Calm     96% 0.00 in 0.0 W/m2 OVC
01:55 61.0 °F 59.8 °F 29.97 in Calm     96% 0.00 in 0.0 W/m2 OVC
02:00 61.0 °F 59.8 °F 29.97 in Calm     96% 0.00 in 0.0 W/m2 OVC
02:10 62.1 °F 60.9 °F 29.97 in Calm     96% 0.00 in 0.0 W/m2 OVC
02:15 62.1 °F 60.9 °F 29.97 in Calm     96% 0.00 in 0.0 W/m2 OVC
02:25 62.1 °F 60.9 °F 29.97 in Calm     96% 0.00 in 0.0 W/m2 OVC
02:30 62.1 °F 60.9 °F 29.97 in Calm     96% 0.00 in 0.0 W/m2 OVC
02:40 62.1 °F 60.0 °F 29.98 in Calm     93% 0.00 in 0.0 W/m2 OVC
02:55 62.1 °F 60.0 °F 29.98 in Calm     93% 0.00 in 0.0 W/m2 OVC
03:00 62.1 °F 60.0 °F 29.98 in Calm     93% 0.00 in 0.0 W/m2 OVC
03:10 62.1 °F 60.0 °F 29.98 in Calm     93% 0.00 in 0.0 W/m2 OVC
03:15 62.1 °F 60.0 °F 29.98 in Calm     93% 0.00 in 0.0 W/m2 OVC
03:25 62.1 °F 60.0 °F 29.98 in Calm     93% 0.00 in 0.0 W/m2 OVC
03:30 62.1 °F 60.0 °F 29.98 in Calm     93% 0.00 in 0.0 W/m2 OVC
03:40 62.1 °F 60.0 °F 29.98 in Calm     93% 0.00 in 0.0 W/m2 OVC
03:45 62.1 °F 60.0 °F 29.98 in Calm     93% 0.00 in 0.0 W/m2 OVC
03:55 62.1 °F 60.0 °F 29.98 in Calm     93% 0.00 in 0.0 W/m2 OVC
04:10 62.1 °F 58.8 °F 29.99 in Calm     89% 0.00 in 0.0 W/m2 OVC
04:15 62.1 °F 58.8 °F 29.99 in Calm     89% 0.00 in 0.0 W/m2 OVC
04:25 62.1 °F 58.8 °F 29.99 in Calm     89% 0.00 in 0.0 W/m2 OVC
04:30 62.1 °F 58.8 °F 29.99 in Calm     89% 0.00 in 0.0 W/m2 OVC
04:40 62.1 °F 58.8 °F 29.99 in Calm     89% 0.00 in 0.0 W/m2 OVC
04:45 62.1 °F 58.8 °F 29.99 in Calm     89% 0.00 in 0.0 W/m2 OVC
04:55 61.0 °F 57.7 °F 30.00 in Calm     89% 0.00 in 0.0 W/m2 OVC
05:00 61.0 °F 57.7 °F 30.00 in Calm     89% 0.00 in 0.0 W/m2 OVC
05:10 60.1 °F 56.8 °F 30.00 in Calm     89% 0.00 in 0.0 W/m2 OVC
05:15 60.1 °F 56.8 °F 30.00 in Calm     89% 0.00 in 0.0 W/m2 OVC
05:25 60.1 °F 56.8 °F 30.00 in Calm     89% 0.00 in 0.0 W/m2 OVC
05:30 60.1 °F 56.8 °F 30.00 in Calm     89% 0.00 in 0.0 W/m2 OVC
05:40 60.1 °F 56.8 °F 30.00 in Calm     89% 0.00 in 0.0 W/m2 OVC
05:45 60.1 °F 56.8 °F 30.00 in Calm     89% 0.00 in 0.0 W/m2 OVC
05:50 60.1 °F 55.9 °F 30.02 in Calm     86% 0.00 in 0.0 W/m2 OVC
06:00 60.1 °F 55.9 °F 30.02 in Calm     86% 0.00 in 0.0 W/m2 OVC
06:10 59.0 °F 54.8 °F 30.03 in Calm     86% 0.00 in 0.0 W/m2 OVC
06:15 59.0 °F 54.8 °F 30.03 in Calm     86% 0.00 in 0.0 W/m2 OVC
06:25 59.0 °F 54.8 °F 30.03 in Calm     86% 0.00 in 0.0 W/m2 OVC
06:40 59.0 °F 54.8 °F 30.03 in Calm     86% 0.00 in 0.0 W/m2 OVC
06:45 59.0 °F 54.8 °F 30.03 in Calm     86% 0.00 in 0.0 W/m2 OVC
06:55 59.0 °F 54.8 °F 30.03 in Calm     86% 0.00 in 0.0 W/m2 OVC
07:00 59.0 °F 54.8 °F 30.03 in Calm     86% 0.00 in 0.0 W/m2 OVC
07:10 57.0 °F 53.8 °F 30.05 in Calm     89% 0.00 in 0.0 W/m2 OVC
07:15 57.0 °F 53.8 °F 30.05 in Calm     89% 0.00 in 0.0 W/m2 OVC
07:25 57.0 °F 53.8 °F 30.05 in Calm     89% 0.00 in 0.0 W/m2 OVC
07:30 57.0 °F 53.8 °F 30.05 in Calm     89% 0.00 in 0.0 W/m2 OVC
07:40 57.0 °F 53.8 °F 30.05 in Calm     89% 0.00 in 0.0 W/m2 OVC
07:45 57.0 °F 53.8 °F 30.05 in Calm     89% 0.00 in 0.0 W/m2 OVC
07:55 57.0 °F 52.9 °F 30.08 in Calm     86% 0.00 in 0.0 W/m2 OVC
08:00 57.0 °F 52.9 °F 30.08 in Calm     86% 0.00 in 0.0 W/m2 OVC
08:10 57.0 °F 52.9 °F 30.08 in Calm     86% 0.00 in 0.0 W/m2 OVC
08:15 57.0 °F 52.9 °F 30.08 in Calm     86% 0.00 in 0.0 W/m2 OVC
08:30 57.0 °F 52.9 °F 30.08 in Calm     86% 0.00 in 0.0 W/m2 OVC
08:40 57.0 °F 51.9 °F 30.10 in Calm     83% 0.00 in 0.0 W/m2 OVC
08:45 57.0 °F 51.9 °F 30.10 in Calm     83% 0.00 in 0.0 W/m2 OVC
08:55 57.0 °F 51.9 °F 30.10 in Calm     83% 0.00 in 0.0 W/m2 OVC
09:00 57.0 °F 51.9 °F 30.10 in Calm     83% 0.00 in 0.0 W/m2 OVC
09:10 57.0 °F 51.9 °F 30.11 in Calm     83% 0.00 in 0.0 W/m2 OVC
09:15 57.0 °F 51.9 °F 30.11 in Calm     83% 0.00 in 0.0 W/m2 OVC
09:25 57.0 °F 51.9 °F 30.11 in Calm     83% 0.00 in 0.0 W/m2 OVC
09:30 57.0 °F 51.9 °F 30.11 in Calm     83% 0.00 in 0.0 W/m2 OVC
09:40 57.0 °F 51.9 °F 30.11 in Calm     83% 0.00 in 0.0 W/m2 OVC
09:45 57.0 °F 51.9 °F 30.11 in Calm     83% 0.00 in 0.0 W/m2 OVC
09:55 57.9 °F 50.8 °F 30.13 in Calm     77% 0.00 in 0.0 W/m2 OVC
10:00 57.9 °F 50.8 °F 30.13 in Calm     77% 0.00 in 0.0 W/m2 OVC
10:10 57.9 °F 49.7 °F 30.14 in Calm     74% 0.00 in 0.0 W/m2 OVC
10:15 57.9 °F 49.7 °F 30.14 in Calm     74% 0.00 in 0.0 W/m2 OVC
10:25 57.9 °F 49.7 °F 30.14 in Calm     74% 0.00 in 0.0 W/m2 OVC
10:30 57.9 °F 49.7 °F 30.14 in Calm     74% 0.00 in 0.0 W/m2 OVC
10:40 57.9 °F 49.7 °F 30.14 in Calm     74% 0.00 in 0.0 W/m2 SCT
10:45 57.9 °F 49.7 °F 30.14 in Calm     74% 0.00 in 0.0 W/m2 SCT
10:55 57.9 °F 49.7 °F 30.14 in Calm     74% 0.00 in 0.0 W/m2 SCT
11:00 57.9 °F 49.7 °F 30.14 in Calm     74% 0.00 in 0.0 W/m2 SCT
11:10 60.1 °F 49.9 °F 30.14 in Calm     69% 0.00 in 0.0 W/m2 BKN
11:15 60.1 °F 49.9 °F 30.14 in Calm     69% 0.00 in 0.0 W/m2 BKN
11:25 60.1 °F 49.9 °F 30.14 in Calm     69% 0.00 in 0.0 W/m2 BKN
11:30 60.1 °F 49.9 °F 30.14 in Calm     69% 0.00 in 0.0 W/m2 BKN
11:40 59.0 °F 48.8 °F 30.14 in Calm     69% 0.00 in 0.0 W/m2 BKN
11:45 59.0 °F 48.8 °F 30.14 in Calm     69% 0.00 in 0.0 W/m2 BKN
12:00 59.0 °F 48.8 °F 30.14 in Calm     69% 0.00 in 0.0 W/m2 BKN
12:10 57.9 °F 47.8 °F 30.15 in Calm     69% 0.00 in 0.0 W/m2 OVC
12:15 57.9 °F 47.8 °F 30.15 in Calm     69% 0.00 in 0.0 W/m2 OVC
12:30 57.9 °F 47.8 °F 30.15 in Calm     69% 0.00 in 0.0 W/m2 OVC
12:40 57.9 °F 47.8 °F 30.15 in Calm     69% 0.00 in 0.0 W/m2 OVC
12:45 57.9 °F 47.8 °F 30.15 in Calm     69% 0.00 in 0.0 W/m2 OVC
12:55 57.9 °F 47.8 °F 30.14 in Calm     69% 0.00 in 0.0 W/m2 OVC
13:00 57.9 °F 47.8 °F 30.14 in Calm     69% 0.00 in 0.0 W/m2 OVC
13:15 57.9 °F 46.6 °F 30.14 in Calm     66% 0.00 in 0.0 W/m2 OVC
13:30 57.9 °F 46.6 °F 30.14 in Calm     66% 0.00 in 0.0 W/m2 OVC
13:40 57.9 °F 46.6 °F 30.14 in Calm     66% 0.00 in 0.0 W/m2 OVC
13:45 57.9 °F 46.6 °F 30.14 in Calm     66% 0.00 in 0.0 W/m2 OVC
14:00 57.9 °F 46.6 °F 30.14 in Calm     66% 0.00 in 0.0 W/m2 OVC
14:10 57.9 °F 45.8 °F 30.12 in Calm     64% 0.00 in 0.0 W/m2 OVC
14:15 57.9 °F 45.8 °F 30.12 in Calm     64% 0.00 in 0.0 W/m2 OVC
14:25 57.9 °F 45.8 °F 30.12 in Calm     64% 0.00 in 0.0 W/m2 OVC
14:40 57.9 °F 45.8 °F 30.12 in Calm     64% 0.00 in 0.0 W/m2 OVC
14:45 57.9 °F 45.8 °F 30.12 in Calm     64% 0.00 in 0.0 W/m2 OVC
15:00 57.9 °F 45.8 °F 30.12 in Calm     64% 0.00 in 0.0 W/m2 OVC
15:10 55.9 °F 44.7 °F 30.13 in Calm     66% 0.00 in 0.0 W/m2 OVC
15:15 55.9 °F 44.7 °F 30.13 in Calm     66% 0.00 in 0.0 W/m2 OVC
15:30 55.9 °F 44.7 °F 30.13 in Calm     66% 0.00 in 0.0 W/m2 OVC
15:40 55.9 °F 44.7 °F 30.13 in Calm     66% 0.00 in 0.0 W/m2 OVC
15:55 55.9 °F 44.7 °F 30.13 in Calm     66% 0.00 in 0.0 W/m2 OVC
16:00 55.9 °F 44.7 °F 30.13 in Calm     66% 0.00 in 0.0 W/m2 OVC
16:10 55.9 °F 43.9 °F 30.14 in Calm     64% 0.00 in 0.0 W/m2 OVC
16:15 55.9 °F 43.9 °F 30.14 in Calm     64% 0.00 in 0.0 W/m2 OVC
16:25 55.9 °F 43.9 °F 30.14 in Calm     64% 0.00 in 0.0 W/m2 OVC
16:30 55.9 °F 43.9 °F 30.14 in Calm     64% 0.00 in 0.0 W/m2 OVC
16:40 55.9 °F 43.9 °F 30.14 in Calm     64% 0.00 in 0.0 W/m2 OVC
16:45 55.9 °F 43.9 °F 30.14 in Calm     64% 0.00 in 0.0 W/m2 OVC
17:10 53.1 °F 43.9 °F 30.17 in Calm     71% 0.00 in 0.0 W/m2 OVC
17:15 53.1 °F 43.9 °F 30.17 in Calm     71% 0.00 in 0.0 W/m2 OVC
17:25 53.1 °F 43.9 °F 30.17 in Calm     71% 0.00 in 0.0 W/m2 OVC
17:30 53.1 °F 43.9 °F 30.17 in Calm     71% 0.00 in 0.0 W/m2 OVC
17:40 53.1 °F 43.9 °F 30.17 in Calm     71% 0.00 in 0.0 W/m2 OVC
17:45 53.1 °F 43.9 °F 30.17 in Calm     71% 0.00 in 0.0 W/m2 OVC
17:55 53.1 °F 43.9 °F 30.17 in Calm     71% 0.00 in 0.0 W/m2 OVC
18:00 53.1 °F 43.9 °F 30.17 in Calm     71% 0.00 in 0.0 W/m2 OVC
18:10 51.1 °F 43.8 °F 30.20 in Calm     76% 0.00 in 0.0 W/m2 OVC
18:15 51.1 °F 43.8 °F 30.20 in Calm     76% 0.00 in 0.0 W/m2 OVC
18:25 51.1 °F 43.8 °F 30.20 in Calm     76% 0.00 in 0.0 W/m2 OVC
18:40 51.1 °F 43.8 °F 30.20 in Calm     76% 0.00 in 0.0 W/m2 OVC
18:45 51.1 °F 43.8 °F 30.20 in Calm     76% 0.00 in 0.0 W/m2 OVC
18:55 51.1 °F 43.8 °F 30.20 in Calm     76% 0.00 in 0.0 W/m2 OVC
19:00 51.1 °F 43.8 °F 30.20 in Calm     76% 0.00 in 0.0 W/m2 OVC
19:10 51.1 °F 43.8 °F 30.23 in Calm     76% 0.00 in 0.0 W/m2 OVC
19:15 51.1 °F 43.8 °F 30.23 in Calm     76% 0.00 in 0.0 W/m2 OVC
19:30 51.1 °F 43.8 °F 30.23 in Calm     76% 0.00 in 0.0 W/m2 OVC
19:40 51.1 °F 43.8 °F 30.23 in Calm     76% 0.00 in 0.0 W/m2 OVC
19:45 51.1 °F 43.8 °F 30.23 in Calm     76% 0.00 in 0.0 W/m2 OVC
19:55 51.1 °F 43.8 °F 30.23 in Calm     76% 0.00 in 0.0 W/m2 OVC
20:00 51.1 °F 43.8 °F 30.23 in Calm     76% 0.00 in 0.0 W/m2 OVC
20:10 50.0 °F 42.7 °F 30.26 in Calm     76% 0.00 in 0.0 W/m2 OVC
20:15 50.0 °F 42.7 °F 30.26 in Calm     76% 0.00 in 0.0 W/m2 OVC
20:25 50.0 °F 42.7 °F 30.26 in Calm     76% 0.00 in 0.0 W/m2 OVC
20:30 50.0 °F 42.7 °F 30.26 in Calm     76% 0.00 in 0.0 W/m2 OVC
20:40 48.0 °F 40.8 °F 30.27 in Calm     76% 0.00 in 0.0 W/m2 OVC
20:45 48.0 °F 40.8 °F 30.27 in Calm     76% 0.00 in 0.0 W/m2 OVC
20:55 48.0 °F 40.8 °F 30.27 in Calm     76% 0.00 in 0.0 W/m2 OVC
21:00 48.0 °F 40.8 °F 30.27 in Calm     76% 0.00 in 0.0 W/m2 OVC
21:10 48.0 °F 40.8 °F 30.28 in Calm     76% 0.00 in 0.0 W/m2 OVC
21:15 48.0 °F 40.8 °F 30.28 in Calm     76% 0.00 in 0.0 W/m2 OVC
21:25 48.0 °F 40.8 °F 30.28 in Calm     76% 0.00 in 0.0 W/m2 OVC
21:30 48.0 °F 40.8 °F 30.28 in Calm     76% 0.00 in 0.0 W/m2 OVC
21:40 48.0 °F 40.8 °F 30.28 in Calm     76% 0.00 in 0.0 W/m2 OVC
21:45 48.0 °F 40.8 °F 30.28 in Calm     76% 0.00 in 0.0 W/m2 OVC
21:55 48.0 °F 40.8 °F 30.28 in Calm     76% 0.00 in 0.0 W/m2 OVC
22:00 48.0 °F 40.8 °F 30.28 in Calm     76% 0.00 in 0.0 W/m2 OVC
22:15 48.0 °F 39.8 °F 30.31 in Calm     73% 0.00 in 0.0 W/m2 OVC
22:25 48.0 °F 39.8 °F 30.31 in Calm     73% 0.00 in 0.0 W/m2 OVC
22:30 48.0 °F 39.8 °F 30.31 in Calm     73% 0.00 in 0.0 W/m2 OVC
22:40 48.0 °F 39.8 °F 30.31 in Calm     73% 0.00 in 0.0 W/m2 OVC
22:45 48.0 °F 39.8 °F 30.31 in Calm     73% 0.00 in 0.0 W/m2 OVC
22:55 48.0 °F 40.8 °F 30.32 in Calm     76% 0.00 in 0.0 W/m2 OVC
23:00 48.0 °F 40.8 °F 30.32 in Calm     76% 0.00 in 0.0 W/m2 OVC
23:10 46.9 °F 40.8 °F 30.33 in Calm     79% 0.00 in 0.0 W/m2 OVC
23:15 46.9 °F 40.8 °F 30.33 in Calm     79% 0.00 in 0.0 W/m2 OVC
23:25 46.9 °F 40.8 °F 30.33 in Calm     79% 0.00 in 0.0 W/m2 OVC
23:30 46.9 °F 40.8 °F 30.33 in Calm     79% 0.00 in 0.0 W/m2 OVC
23:40 46.9 °F 40.8 °F 30.33 in Calm     79% 0.00 in 0.0 W/m2 OVC
23:45 46.9 °F 40.8 °F 30.33 in Calm     79% 0.00 in 0.0 W/m2 OVC
23:55 46.9 °F 40.8 °F 30.33 in Calm     79% 0.00 in 0.0 W/m2 OVC
Lake Mary, FL, USA
Compliments of Weather Underground - 1.5 mb